sensor_id;sensor_type;location;lat;lon;timestamp;P1;durP1;ratioP1;P2;durP2;ratioP2
18657;SDS011;9458;50.942;5.074;2023-04-24T00:00:11;14.68;;;9.55;;
18657;SDS011;9458;50.942;5.074;2023-04-24T00:02:47;13.50;;;10.05;;
18657;SDS011;9458;50.942;5.074;2023-04-24T00:05:29;14.15;;;9.30;;
18657;SDS011;9458;50.942;5.074;2023-04-24T00:08:02;11.88;;;9.05;;
18657;SDS011;9458;50.942;5.074;2023-04-24T00:10:40;17.05;;;9.98;;
18657;SDS011;9458;50.942;5.074;2023-04-24T00:13:20;13.73;;;9.38;;
18657;SDS011;9458;50.942;5.074;2023-04-24T00:15:50;15.50;;;9.93;;
18657;SDS011;9458;50.942;5.074;2023-04-24T00:18:20;14.32;;;10.27;;
18657;SDS011;9458;50.942;5.074;2023-04-24T00:20:50;17.17;;;9.98;;
18657;SDS011;9458;50.942;5.074;2023-04-24T00:23:19;14.40;;;9.77;;
18657;SDS011;9458;50.942;5.074;2023-04-24T00:25:51;15.90;;;10.48;;
18657;SDS011;9458;50.942;5.074;2023-04-24T00:28:22;14.65;;;9.80;;
18657;SDS011;9458;50.942;5.074;2023-04-24T00:30:55;18.95;;;11.77;;
18657;SDS011;9458;50.942;5.074;2023-04-24T00:33:25;14.40;;;7.93;;
18657;SDS011;9458;50.942;5.074;2023-04-24T00:35:54;14.82;;;11.13;;
18657;SDS011;9458;50.942;5.074;2023-04-24T00:38:21;17.45;;;10.77;;
18657;SDS011;9458;50.942;5.074;2023-04-24T00:40:50;14.50;;;10.27;;
18657;SDS011;9458;50.942;5.074;2023-04-24T00:43:21;15.43;;;10.50;;
18657;SDS011;9458;50.942;5.074;2023-04-24T00:45:51;15.02;;;10.18;;
18657;SDS011;9458;50.942;5.074;2023-04-24T00:48:21;19.15;;;10.93;;
18657;SDS011;9458;50.942;5.074;2023-04-24T00:50:53;20.80;;;11.70;;
18657;SDS011;9458;50.942;5.074;2023-04-24T00:53:24;14.25;;;10.10;;
18657;SDS011;9458;50.942;5.074;2023-04-24T00:55:51;17.48;;;10.30;;
18657;SDS011;9458;50.942;5.074;2023-04-24T00:58:20;15.38;;;10.15;;
18657;SDS011;9458;50.942;5.074;2023-04-24T01:00:48;16.02;;;10.98;;
18657;SDS011;9458;50.942;5.074;2023-04-24T01:03:29;17.10;;;10.98;;
18657;SDS011;9458;50.942;5.074;2023-04-24T01:05:57;14.50;;;11.05;;
18657;SDS011;9458;50.942;5.074;2023-04-24T01:08:27;17.20;;;11.30;;
18657;SDS011;9458;50.942;5.074;2023-04-24T01:10:56;18.70;;;12.20;;
18657;SDS011;9458;50.942;5.074;2023-04-24T01:13:25;17.55;;;11.73;;
18657;SDS011;9458;50.942;5.074;2023-04-24T01:15:54;16.30;;;10.98;;
18657;SDS011;9458;50.942;5.074;2023-04-24T01:18:25;17.48;;;11.70;;
18657;SDS011;9458;50.942;5.074;2023-04-24T01:21:02;21.17;;;11.98;;
18657;SDS011;9458;50.942;5.074;2023-04-24T01:23:32;16.27;;;12.00;;
18657;SDS011;9458;50.942;5.074;2023-04-24T01:26:01;15.07;;;11.10;;
18657;SDS011;9458;50.942;5.074;2023-04-24T01:28:30;16.80;;;12.30;;
18657;SDS011;9458;50.942;5.074;2023-04-24T01:30:58;16.90;;;12.07;;
18657;SDS011;9458;50.942;5.074;2023-04-24T01:33:28;18.42;;;12.13;;
18657;SDS011;9458;50.942;5.074;2023-04-24T01:35:58;19.02;;;11.00;;
18657;SDS011;9458;50.942;5.074;2023-04-24T01:38:30;17.90;;;11.48;;
18657;SDS011;9458;50.942;5.074;2023-04-24T01:40:58;17.08;;;11.45;;
18657;SDS011;9458;50.942;5.074;2023-04-24T01:43:30;19.80;;;11.68;;
18657;SDS011;9458;50.942;5.074;2023-04-24T01:45:59;22.17;;;11.60;;
18657;SDS011;9458;50.942;5.074;2023-04-24T01:48:28;17.63;;;11.70;;
18657;SDS011;9458;50.942;5.074;2023-04-24T01:50:56;19.30;;;11.45;;
18657;SDS011;9458;50.942;5.074;2023-04-24T01:53:24;16.23;;;11.52;;
18657;SDS011;9458;50.942;5.074;2023-04-24T01:55:51;17.65;;;10.80;;
18657;SDS011;9458;50.942;5.074;2023-04-24T01:58:20;17.65;;;11.93;;
18657;SDS011;9458;50.942;5.074;2023-04-24T02:00:49;16.98;;;10.93;;
18657;SDS011;9458;50.942;5.074;2023-04-24T02:03:18;15.20;;;10.52;;
18657;SDS011;9458;50.942;5.074;2023-04-24T02:05:46;14.52;;;10.57;;
18657;SDS011;9458;50.942;5.074;2023-04-24T02:08:13;16.10;;;10.70;;
18657;SDS011;9458;50.942;5.074;2023-04-24T02:10:42;16.85;;;11.13;;
18657;SDS011;9458;50.942;5.074;2023-04-24T02:13:09;12.68;;;10.60;;
18657;SDS011;9458;50.942;5.074;2023-04-24T02:15:38;15.68;;;9.77;;
18657;SDS011;9458;50.942;5.074;2023-04-24T02:18:06;15.57;;;10.40;;
18657;SDS011;9458;50.942;5.074;2023-04-24T02:20:35;13.93;;;10.63;;
18657;SDS011;9458;50.942;5.074;2023-04-24T02:23:05;14.57;;;9.70;;
18657;SDS011;9458;50.942;5.074;2023-04-24T02:25:33;11.32;;;9.10;;
18657;SDS011;9458;50.942;5.074;2023-04-24T02:28:00;11.82;;;8.18;;
18657;SDS011;9458;50.942;5.074;2023-04-24T02:30:28;13.88;;;9.20;;
18657;SDS011;9458;50.942;5.074;2023-04-24T02:32:58;10.55;;;7.95;;
18657;SDS011;9458;50.942;5.074;2023-04-24T02:35:26;14.57;;;9.13;;
18657;SDS011;9458;50.942;5.074;2023-04-24T02:37:55;12.93;;;9.02;;
18657;SDS011;9458;50.942;5.074;2023-04-24T02:40:23;12.38;;;8.60;;
18657;SDS011;9458;50.942;5.074;2023-04-24T02:42:52;10.80;;;8.30;;
18657;SDS011;9458;50.942;5.074;2023-04-24T02:45:20;11.25;;;8.80;;
18657;SDS011;9458;50.942;5.074;2023-04-24T02:47:50;11.07;;;7.85;;
18657;SDS011;9458;50.942;5.074;2023-04-24T02:50:20;13.05;;;8.65;;
18657;SDS011;9458;50.942;5.074;2023-04-24T02:52:48;11.98;;;8.30;;
18657;SDS011;9458;50.942;5.074;2023-04-24T02:55:15;13.15;;;8.75;;
18657;SDS011;9458;50.942;5.074;2023-04-24T02:57:44;14.07;;;9.35;;
18657;SDS011;9458;50.942;5.074;2023-04-24T03:00:12;14.48;;;9.73;;
18657;SDS011;9458;50.942;5.074;2023-04-24T03:02:42;13.75;;;9.45;;
18657;SDS011;9458;50.942;5.074;2023-04-24T03:05:14;15.23;;;10.50;;
18657;SDS011;9458;50.942;5.074;2023-04-24T03:07:44;14.80;;;10.55;;
18657;SDS011;9458;50.942;5.074;2023-04-24T03:10:12;12.60;;;9.93;;
18657;SDS011;9458;50.942;5.074;2023-04-24T03:12:43;14.13;;;11.10;;
18657;SDS011;9458;50.942;5.074;2023-04-24T03:15:16;17.52;;;11.25;;
18657;SDS011;9458;50.942;5.074;2023-04-24T03:17:45;15.40;;;12.10;;
18657;SDS011;9458;50.942;5.074;2023-04-24T03:20:13;17.38;;;11.80;;
18657;SDS011;9458;50.942;5.074;2023-04-24T03:22:44;15.65;;;10.82;;
18657;SDS011;9458;50.942;5.074;2023-04-24T03:25:11;19.10;;;11.55;;
18657;SDS011;9458;50.942;5.074;2023-04-24T03:27:39;17.92;;;12.68;;
18657;SDS011;9458;50.942;5.074;2023-04-24T03:30:08;13.73;;;9.70;;
18657;SDS011;9458;50.942;5.074;2023-04-24T03:32:36;15.32;;;10.90;;
18657;SDS011;9458;50.942;5.074;2023-04-24T03:35:05;17.52;;;11.27;;
18657;SDS011;9458;50.942;5.074;2023-04-24T03:37:34;16.38;;;10.70;;
18657;SDS011;9458;50.942;5.074;2023-04-24T03:40:03;15.68;;;11.13;;
18657;SDS011;9458;50.942;5.074;2023-04-24T03:42:35;14.75;;;11.00;;
18657;SDS011;9458;50.942;5.074;2023-04-24T03:45:02;18.08;;;11.48;;
18657;SDS011;9458;50.942;5.074;2023-04-24T03:47:31;15.52;;;11.45;;
18657;SDS011;9458;50.942;5.074;2023-04-24T03:49:59;15.25;;;10.70;;
18657;SDS011;9458;50.942;5.074;2023-04-24T03:52:27;15.90;;;10.50;;
18657;SDS011;9458;50.942;5.074;2023-04-24T03:54:56;15.65;;;10.55;;
18657;SDS011;9458;50.942;5.074;2023-04-24T03:57:26;15.40;;;10.55;;
18657;SDS011;9458;50.942;5.074;2023-04-24T03:59:55;15.05;;;9.40;;
18657;SDS011;9458;50.942;5.074;2023-04-24T04:02:23;14.57;;;9.95;;
18657;SDS011;9458;50.942;5.074;2023-04-24T04:04:50;15.25;;;9.98;;
18657;SDS011;9458;50.942;5.074;2023-04-24T04:07:27;15.05;;;9.45;;
18657;SDS011;9458;50.942;5.074;2023-04-24T04:09:55;13.90;;;9.02;;
18657;SDS011;9458;50.942;5.074;2023-04-24T04:12:23;16.35;;;9.27;;
18657;SDS011;9458;50.942;5.074;2023-04-24T04:14:52;16.27;;;10.15;;
18657;SDS011;9458;50.942;5.074;2023-04-24T04:17:19;16.52;;;10.32;;
18657;SDS011;9458;50.942;5.074;2023-04-24T04:19:48;18.38;;;10.77;;
18657;SDS011;9458;50.942;5.074;2023-04-24T04:22:15;16.63;;;10.75;;
18657;SDS011;9458;50.942;5.074;2023-04-24T04:24:43;17.70;;;10.48;;
18657;SDS011;9458;50.942;5.074;2023-04-24T04:27:11;19.00;;;10.48;;
18657;SDS011;9458;50.942;5.074;2023-04-24T04:29:40;14.95;;;9.52;;
18657;SDS011;9458;50.942;5.074;2023-04-24T04:32:08;13.55;;;9.52;;
18657;SDS011;9458;50.942;5.074;2023-04-24T04:34:35;12.57;;;7.93;;
18657;SDS011;9458;50.942;5.074;2023-04-24T04:37:05;12.52;;;8.60;;
18657;SDS011;9458;50.942;5.074;2023-04-24T04:39:33;11.88;;;7.65;;
18657;SDS011;9458;50.942;5.074;2023-04-24T04:42:01;14.68;;;8.10;;
18657;SDS011;9458;50.942;5.074;2023-04-24T04:44:30;9.15;;;6.18;;
18657;SDS011;9458;50.942;5.074;2023-04-24T04:46:59;12.60;;;6.93;;
18657;SDS011;9458;50.942;5.074;2023-04-24T04:49:30;9.10;;;6.45;;
18657;SDS011;9458;50.942;5.074;2023-04-24T04:51:57;11.65;;;6.70;;
18657;SDS011;9458;50.942;5.074;2023-04-24T04:54:25;8.80;;;6.72;;
18657;SDS011;9458;50.942;5.074;2023-04-24T04:56:52;9.38;;;6.82;;
18657;SDS011;9458;50.942;5.074;2023-04-24T04:59:20;9.30;;;6.32;;
18657;SDS011;9458;50.942;5.074;2023-04-24T05:01:48;10.68;;;6.03;;
18657;SDS011;9458;50.942;5.074;2023-04-24T05:04:17;9.32;;;6.07;;
18657;SDS011;9458;50.942;5.074;2023-04-24T05:06:45;9.82;;;6.05;;
18657;SDS011;9458;50.942;5.074;2023-04-24T05:09:13;8.93;;;6.18;;
18657;SDS011;9458;50.942;5.074;2023-04-24T05:11:41;8.98;;;6.15;;
18657;SDS011;9458;50.942;5.074;2023-04-24T05:14:08;9.65;;;6.63;;
18657;SDS011;9458;50.942;5.074;2023-04-24T05:16:37;9.68;;;6.68;;
18657;SDS011;9458;50.942;5.074;2023-04-24T05:19:05;9.80;;;7.05;;
18657;SDS011;9458;50.942;5.074;2023-04-24T05:21:35;8.85;;;7.15;;
18657;SDS011;9458;50.942;5.074;2023-04-24T05:24:04;9.50;;;6.43;;
18657;SDS011;9458;50.942;5.074;2023-04-24T05:26:43;7.75;;;5.78;;
18657;SDS011;9458;50.942;5.074;2023-04-24T05:29:11;6.25;;;4.53;;
18657;SDS011;9458;50.942;5.074;2023-04-24T05:31:38;7.57;;;5.15;;
18657;SDS011;9458;50.942;5.074;2023-04-24T05:34:06;9.02;;;5.63;;
18657;SDS011;9458;50.942;5.074;2023-04-24T05:36:35;9.07;;;5.53;;
18657;SDS011;9458;50.942;5.074;2023-04-24T05:39:03;9.30;;;5.78;;
18657;SDS011;9458;50.942;5.074;2023-04-24T05:41:31;7.95;;;4.90;;
18657;SDS011;9458;50.942;5.074;2023-04-24T05:43:59;10.02;;;5.63;;
18657;SDS011;9458;50.942;5.074;2023-04-24T05:46:28;10.68;;;6.40;;
18657;SDS011;9458;50.942;5.074;2023-04-24T05:48:57;14.52;;;8.02;;
18657;SDS011;9458;50.942;5.074;2023-04-24T05:51:24;12.48;;;8.20;;
18657;SDS011;9458;50.942;5.074;2023-04-24T05:53:53;13.25;;;8.02;;
18657;SDS011;9458;50.942;5.074;2023-04-24T05:56:20;12.90;;;8.25;;
18657;SDS011;9458;50.942;5.074;2023-04-24T05:58:47;14.65;;;7.80;;
18657;SDS011;9458;50.942;5.074;2023-04-24T06:01:15;16.23;;;8.60;;
18657;SDS011;9458;50.942;5.074;2023-04-24T06:03:53;12.75;;;8.73;;
18657;SDS011;9458;50.942;5.074;2023-04-24T06:06:27;14.65;;;8.88;;
18657;SDS011;9458;50.942;5.074;2023-04-24T06:08:59;15.18;;;9.43;;
18657;SDS011;9458;50.942;5.074;2023-04-24T06:11:26;14.82;;;9.23;;
18657;SDS011;9458;50.942;5.074;2023-04-24T06:13:54;14.48;;;9.07;;
18657;SDS011;9458;50.942;5.074;2023-04-24T06:16:23;16.00;;;10.20;;
18657;SDS011;9458;50.942;5.074;2023-04-24T06:18:50;12.82;;;8.50;;
18657;SDS011;9458;50.942;5.074;2023-04-24T06:21:18;20.90;;;9.40;;
18657;SDS011;9458;50.942;5.074;2023-04-24T06:23:45;15.98;;;9.30;;
18657;SDS011;9458;50.942;5.074;2023-04-24T06:26:14;19.10;;;9.68;;
18657;SDS011;9458;50.942;5.074;2023-04-24T06:28:42;18.70;;;9.57;;
18657;SDS011;9458;50.942;5.074;2023-04-24T06:31:09;17.95;;;10.18;;
18657;SDS011;9458;50.942;5.074;2023-04-24T06:33:37;17.58;;;10.55;;
18657;SDS011;9458;50.942;5.074;2023-04-24T06:36:04;19.42;;;10.82;;
18657;SDS011;9458;50.942;5.074;2023-04-24T06:38:32;21.30;;;10.75;;
18657;SDS011;9458;50.942;5.074;2023-04-24T06:41:00;21.67;;;11.05;;
18657;SDS011;9458;50.942;5.074;2023-04-24T06:43:31;19.70;;;11.10;;
18657;SDS011;9458;50.942;5.074;2023-04-24T06:45:59;24.27;;;11.38;;
18657;SDS011;9458;50.942;5.074;2023-04-24T06:48:28;18.80;;;10.88;;
18657;SDS011;9458;50.942;5.074;2023-04-24T06:50:57;21.27;;;11.38;;
18657;SDS011;9458;50.942;5.074;2023-04-24T06:53:24;21.88;;;12.23;;
18657;SDS011;9458;50.942;5.074;2023-04-24T06:55:52;23.33;;;11.82;;
18657;SDS011;9458;50.942;5.074;2023-04-24T06:58:20;21.73;;;11.35;;
18657;SDS011;9458;50.942;5.074;2023-04-24T07:00:50;20.17;;;11.80;;
18657;SDS011;9458;50.942;5.074;2023-04-24T07:03:19;18.65;;;11.45;;
18657;SDS011;9458;50.942;5.074;2023-04-24T07:05:48;20.80;;;11.30;;
18657;SDS011;9458;50.942;5.074;2023-04-24T07:08:16;22.75;;;11.93;;
18657;SDS011;9458;50.942;5.074;2023-04-24T07:10:45;20.50;;;11.13;;
18657;SDS011;9458;50.942;5.074;2023-04-24T07:13:13;19.52;;;11.48;;
18657;SDS011;9458;50.942;5.074;2023-04-24T07:15:40;20.02;;;12.20;;
18657;SDS011;9458;50.942;5.074;2023-04-24T07:18:09;22.73;;;12.32;;
18657;SDS011;9458;50.942;5.074;2023-04-24T07:20:39;18.25;;;11.55;;
18657;SDS011;9458;50.942;5.074;2023-04-24T07:23:08;23.15;;;11.60;;
18657;SDS011;9458;50.942;5.074;2023-04-24T07:25:36;19.35;;;12.20;;
18657;SDS011;9458;50.942;5.074;2023-04-24T07:28:04;22.38;;;13.80;;
18657;SDS011;9458;50.942;5.074;2023-04-24T07:30:31;21.95;;;11.73;;
18657;SDS011;9458;50.942;5.074;2023-04-24T07:32:59;23.00;;;12.70;;
18657;SDS011;9458;50.942;5.074;2023-04-24T07:35:28;26.10;;;13.85;;
18657;SDS011;9458;50.942;5.074;2023-04-24T07:37:55;23.45;;;13.80;;
18657;SDS011;9458;50.942;5.074;2023-04-24T07:40:22;27.30;;;14.05;;
18657;SDS011;9458;50.942;5.074;2023-04-24T07:42:50;21.85;;;13.13;;
18657;SDS011;9458;50.942;5.074;2023-04-24T07:45:17;23.13;;;13.27;;
18657;SDS011;9458;50.942;5.074;2023-04-24T07:47:45;24.67;;;13.25;;
18657;SDS011;9458;50.942;5.074;2023-04-24T07:50:13;21.27;;;13.38;;
18657;SDS011;9458;50.942;5.074;2023-04-24T07:52:42;22.45;;;12.82;;
18657;SDS011;9458;50.942;5.074;2023-04-24T07:55:09;22.17;;;12.50;;
18657;SDS011;9458;50.942;5.074;2023-04-24T07:57:36;24.77;;;13.38;;
18657;SDS011;9458;50.942;5.074;2023-04-24T08:00:04;23.05;;;13.35;;
18657;SDS011;9458;50.942;5.074;2023-04-24T08:02:33;22.02;;;13.02;;
18657;SDS011;9458;50.942;5.074;2023-04-24T08:05:01;22.15;;;12.63;;
18657;SDS011;9458;50.942;5.074;2023-04-24T08:07:29;23.85;;;14.00;;
18657;SDS011;9458;50.942;5.074;2023-04-24T08:09:59;22.95;;;13.40;;
18657;SDS011;9458;50.942;5.074;2023-04-24T08:12:27;25.05;;;12.75;;
18657;SDS011;9458;50.942;5.074;2023-04-24T08:14:55;30.40;;;14.00;;
18657;SDS011;9458;50.942;5.074;2023-04-24T08:17:22;26.80;;;14.07;;
18657;SDS011;9458;50.942;5.074;2023-04-24T08:19:50;22.67;;;12.63;;
18657;SDS011;9458;50.942;5.074;2023-04-24T08:22:24;27.58;;;12.40;;
18657;SDS011;9458;50.942;5.074;2023-04-24T08:24:51;21.50;;;12.02;;
18657;SDS011;9458;50.942;5.074;2023-04-24T08:27:21;22.90;;;11.85;;
18657;SDS011;9458;50.942;5.074;2023-04-24T08:29:49;27.17;;;11.68;;
18657;SDS011;9458;50.942;5.074;2023-04-24T08:32:17;21.83;;;11.18;;
18657;SDS011;9458;50.942;5.074;2023-04-24T08:34:45;23.38;;;10.95;;
18657;SDS011;9458;50.942;5.074;2023-04-24T08:37:12;13.80;;;9.10;;
18657;SDS011;9458;50.942;5.074;2023-04-24T08:39:39;14.85;;;7.88;;
18657;SDS011;9458;50.942;5.074;2023-04-24T08:42:07;10.73;;;6.85;;
18657;SDS011;9458;50.942;5.074;2023-04-24T08:44:37;13.20;;;6.47;;
18657;SDS011;9458;50.942;5.074;2023-04-24T08:47:05;10.40;;;5.57;;
18657;SDS011;9458;50.942;5.074;2023-04-24T08:49:35;10.98;;;5.70;;
18657;SDS011;9458;50.942;5.074;2023-04-24T08:52:04;12.55;;;5.65;;
18657;SDS011;9458;50.942;5.074;2023-04-24T08:54:33;9.95;;;5.90;;
18657;SDS011;9458;50.942;5.074;2023-04-24T08:57:03;11.75;;;7.60;;
18657;SDS011;9458;50.942;5.074;2023-04-24T08:59:43;12.35;;;6.70;;
18657;SDS011;9458;50.942;5.074;2023-04-24T09:02:12;13.02;;;6.72;;
18657;SDS011;9458;50.942;5.074;2023-04-24T09:04:40;10.80;;;6.05;;
18657;SDS011;9458;50.942;5.074;2023-04-24T09:07:09;12.52;;;6.63;;
18657;SDS011;9458;50.942;5.074;2023-04-24T09:09:38;11.80;;;6.38;;
18657;SDS011;9458;50.942;5.074;2023-04-24T09:12:06;13.65;;;7.20;;
18657;SDS011;9458;50.942;5.074;2023-04-24T09:14:35;11.63;;;7.07;;
18657;SDS011;9458;50.942;5.074;2023-04-24T09:17:09;15.85;;;8.63;;
18657;SDS011;9458;50.942;5.074;2023-04-24T09:19:36;13.23;;;7.95;;
18657;SDS011;9458;50.942;5.074;2023-04-24T09:22:04;15.68;;;7.15;;
18657;SDS011;9458;50.942;5.074;2023-04-24T09:24:39;16.30;;;8.30;;
18657;SDS011;9458;50.942;5.074;2023-04-24T09:27:07;14.10;;;7.45;;
18657;SDS011;9458;50.942;5.074;2023-04-24T09:29:47;10.70;;;6.57;;
18657;SDS011;9458;50.942;5.074;2023-04-24T09:32:23;9.85;;;7.15;;
18657;SDS011;9458;50.942;5.074;2023-04-24T09:35:05;13.82;;;7.13;;
18657;SDS011;9458;50.942;5.074;2023-04-24T09:37:35;10.80;;;6.60;;
18657;SDS011;9458;50.942;5.074;2023-04-24T09:40:17;11.73;;;7.72;;
18657;SDS011;9458;50.942;5.074;2023-04-24T09:42:46;13.10;;;7.93;;
18657;SDS011;9458;50.942;5.074;2023-04-24T09:45:19;12.90;;;7.18;;
18657;SDS011;9458;50.942;5.074;2023-04-24T09:47:50;14.07;;;7.72;;
18657;SDS011;9458;50.942;5.074;2023-04-24T09:50:26;13.23;;;6.80;;
18657;SDS011;9458;50.942;5.074;2023-04-24T09:53:15;10.38;;;5.90;;
18657;SDS011;9458;50.942;5.074;2023-04-24T09:56:48;9.20;;;5.20;;
18657;SDS011;9458;50.942;5.074;2023-04-24T09:59:17;12.82;;;6.15;;
18657;SDS011;9458;50.942;5.074;2023-04-24T10:01:46;10.45;;;4.50;;
18657;SDS011;9458;50.942;5.074;2023-04-24T10:04:24;8.82;;;4.57;;
18657;SDS011;9458;50.942;5.074;2023-04-24T10:07:08;7.63;;;5.35;;
18657;SDS011;9458;50.942;5.074;2023-04-24T10:10:14;8.25;;;5.63;;
18657;SDS011;9458;50.942;5.074;2023-04-24T10:12:52;11.30;;;5.85;;
18657;SDS011;9458;50.942;5.074;2023-04-24T10:15:21;12.50;;;5.75;;
18657;SDS011;9458;50.942;5.074;2023-04-24T10:17:50;10.80;;;5.93;;
18657;SDS011;9458;50.942;5.074;2023-04-24T10:20:29;11.10;;;5.32;;
18657;SDS011;9458;50.942;5.074;2023-04-24T10:22:57;11.95;;;5.47;;
18657;SDS011;9458;50.942;5.074;2023-04-24T10:25:25;8.95;;;4.60;;
18657;SDS011;9458;50.942;5.074;2023-04-24T10:27:55;12.45;;;4.72;;
18657;SDS011;9458;50.942;5.074;2023-04-24T10:30:26;8.18;;;5.07;;
18657;SDS011;9458;50.942;5.074;2023-04-24T10:32:54;10.98;;;5.38;;
18657;SDS011;9458;50.942;5.074;2023-04-24T10:35:23;8.27;;;5.10;;
18657;SDS011;9458;50.942;5.074;2023-04-24T10:37:54;8.27;;;4.70;;
18657;SDS011;9458;50.942;5.074;2023-04-24T10:40:25;11.93;;;5.50;;
18657;SDS011;9458;50.942;5.074;2023-04-24T10:42:53;8.88;;;4.30;;
18657;SDS011;9458;50.942;5.074;2023-04-24T10:45:21;6.60;;;4.85;;
18657;SDS011;9458;50.942;5.074;2023-04-24T10:47:51;11.00;;;4.72;;
18657;SDS011;9458;50.942;5.074;2023-04-24T10:50:20;11.20;;;5.05;;
18657;SDS011;9458;50.942;5.074;2023-04-24T10:52:50;8.70;;;4.65;;
18657;SDS011;9458;50.942;5.074;2023-04-24T10:58:12;6.72;;;3.97;;
18657;SDS011;9458;50.942;5.074;2023-04-24T11:00:41;7.70;;;4.38;;
18657;SDS011;9458;50.942;5.074;2023-04-24T11:03:22;9.18;;;4.22;;
18657;SDS011;9458;50.942;5.074;2023-04-24T11:05:57;10.13;;;4.95;;
18657;SDS011;9458;50.942;5.074;2023-04-24T11:08:29;9.73;;;4.05;;
18657;SDS011;9458;50.942;5.074;2023-04-24T11:11:01;9.77;;;3.90;;
18657;SDS011;9458;50.942;5.074;2023-04-24T11:16:34;8.25;;;4.13;;
18657;SDS011;9458;50.942;5.074;2023-04-24T11:19:04;7.57;;;4.10;;
18657;SDS011;9458;50.942;5.074;2023-04-24T11:21:39;7.63;;;3.70;;
18657;SDS011;9458;50.942;5.074;2023-04-24T11:27:16;4.47;;;3.83;;
18657;SDS011;9458;50.942;5.074;2023-04-24T11:29:46;5.10;;;3.78;;
18657;SDS011;9458;50.942;5.074;2023-04-24T11:32:16;6.93;;;4.00;;
18657;SDS011;9458;50.942;5.074;2023-04-24T11:35:00;4.45;;;3.85;;
18657;SDS011;9458;50.942;5.074;2023-04-24T11:37:33;5.47;;;3.90;;
18657;SDS011;9458;50.942;5.074;2023-04-24T11:40:05;8.23;;;3.88;;
18657;SDS011;9458;50.942;5.074;2023-04-24T11:42:34;7.40;;;4.10;;
18657;SDS011;9458;50.942;5.074;2023-04-24T11:45:07;6.40;;;3.28;;
18657;SDS011;9458;50.942;5.074;2023-04-24T11:47:36;5.22;;;3.50;;
18657;SDS011;9458;50.942;5.074;2023-04-24T11:50:05;4.32;;;3.38;;
18657;SDS011;9458;50.942;5.074;2023-04-24T11:52:36;3.60;;;3.28;;
18657;SDS011;9458;50.942;5.074;2023-04-24T11:55:23;5.07;;;2.90;;
18657;SDS011;9458;50.942;5.074;2023-04-24T11:57:53;5.72;;;3.50;;
18657;SDS011;9458;50.942;5.074;2023-04-24T12:00:24;6.78;;;3.63;;
18657;SDS011;9458;50.942;5.074;2023-04-24T12:03:03;6.00;;;3.38;;
18657;SDS011;9458;50.942;5.074;2023-04-24T12:05:32;4.85;;;3.72;;
18657;SDS011;9458;50.942;5.074;2023-04-24T12:07:59;4.65;;;3.33;;
18657;SDS011;9458;50.942;5.074;2023-04-24T12:10:29;5.40;;;3.40;;
18657;SDS011;9458;50.942;5.074;2023-04-24T12:12:59;6.05;;;3.65;;
18657;SDS011;9458;50.942;5.074;2023-04-24T12:15:27;5.65;;;3.45;;
18657;SDS011;9458;50.942;5.074;2023-04-24T12:17:55;5.50;;;3.70;;
18657;SDS011;9458;50.942;5.074;2023-04-24T12:20:23;6.68;;;3.25;;
18657;SDS011;9458;50.942;5.074;2023-04-24T12:22:52;5.88;;;3.50;;
18657;SDS011;9458;50.942;5.074;2023-04-24T12:25:21;6.20;;;3.58;;
18657;SDS011;9458;50.942;5.074;2023-04-24T12:27:53;5.57;;;3.92;;
18657;SDS011;9458;50.942;5.074;2023-04-24T12:30:26;6.93;;;3.50;;
18657;SDS011;9458;50.942;5.074;2023-04-24T12:32:56;4.85;;;2.90;;
18657;SDS011;9458;50.942;5.074;2023-04-24T12:35:25;4.53;;;3.22;;
18657;SDS011;9458;50.942;5.074;2023-04-24T12:37:54;7.00;;;3.80;;
18657;SDS011;9458;50.942;5.074;2023-04-24T12:40:24;4.15;;;3.75;;
18657;SDS011;9458;50.942;5.074;2023-04-24T12:42:55;4.47;;;3.75;;
18657;SDS011;9458;50.942;5.074;2023-04-24T12:45:23;5.70;;;3.90;;
18657;SDS011;9458;50.942;5.074;2023-04-24T12:47:53;7.75;;;4.03;;
18657;SDS011;9458;50.942;5.074;2023-04-24T12:50:22;6.70;;;4.30;;
18657;SDS011;9458;50.942;5.074;2023-04-24T12:52:49;5.78;;;3.83;;
18657;SDS011;9458;50.942;5.074;2023-04-24T12:55:17;5.03;;;3.78;;
18657;SDS011;9458;50.942;5.074;2023-04-24T12:57:45;5.80;;;3.97;;
18657;SDS011;9458;50.942;5.074;2023-04-24T13:00:14;6.38;;;4.00;;
18657;SDS011;9458;50.942;5.074;2023-04-24T13:02:45;5.65;;;3.83;;
18657;SDS011;9458;50.942;5.074;2023-04-24T13:05:13;6.53;;;4.40;;
18657;SDS011;9458;50.942;5.074;2023-04-24T13:07:42;10.30;;;4.00;;
18657;SDS011;9458;50.942;5.074;2023-04-24T13:10:09;6.90;;;4.57;;
18657;SDS011;9458;50.942;5.074;2023-04-24T13:12:38;7.53;;;3.83;;
18657;SDS011;9458;50.942;5.074;2023-04-24T13:15:06;4.30;;;3.90;;
18657;SDS011;9458;50.942;5.074;2023-04-24T13:17:36;5.40;;;3.90;;
18657;SDS011;9458;50.942;5.074;2023-04-24T13:20:04;7.05;;;4.38;;
18657;SDS011;9458;50.942;5.074;2023-04-24T13:22:32;5.93;;;4.32;;
18657;SDS011;9458;50.942;5.074;2023-04-24T13:24:59;5.07;;;4.07;;
18657;SDS011;9458;50.942;5.074;2023-04-24T13:27:27;5.63;;;4.40;;
18657;SDS011;9458;50.942;5.074;2023-04-24T13:29:54;5.97;;;3.88;;
18657;SDS011;9458;50.942;5.074;2023-04-24T13:32:23;6.75;;;3.97;;
18657;SDS011;9458;50.942;5.074;2023-04-24T13:34:52;5.20;;;4.05;;
18657;SDS011;9458;50.942;5.074;2023-04-24T13:37:19;6.00;;;3.90;;
18657;SDS011;9458;50.942;5.074;2023-04-24T13:39:53;6.43;;;4.00;;
18657;SDS011;9458;50.942;5.074;2023-04-24T13:42:20;6.45;;;3.85;;
18657;SDS011;9458;50.942;5.074;2023-04-24T13:44:47;3.97;;;3.53;;
18657;SDS011;9458;50.942;5.074;2023-04-24T13:47:16;4.32;;;3.90;;
18657;SDS011;9458;50.942;5.074;2023-04-24T13:49:45;6.88;;;3.47;;
18657;SDS011;9458;50.942;5.074;2023-04-24T13:52:14;4.85;;;3.83;;
18657;SDS011;9458;50.942;5.074;2023-04-24T13:54:42;4.75;;;3.67;;
18657;SDS011;9458;50.942;5.074;2023-04-24T13:57:09;6.43;;;3.88;;
18657;SDS011;9458;50.942;5.074;2023-04-24T13:59:38;5.43;;;3.90;;
18657;SDS011;9458;50.942;5.074;2023-04-24T14:02:05;5.47;;;3.85;;
18657;SDS011;9458;50.942;5.074;2023-04-24T14:04:32;6.03;;;3.40;;
18657;SDS011;9458;50.942;5.074;2023-04-24T14:07:10;5.55;;;3.25;;
18657;SDS011;9458;50.942;5.074;2023-04-24T14:09:49;5.18;;;3.63;;
18657;SDS011;9458;50.942;5.074;2023-04-24T14:12:16;5.68;;;4.28;;
18657;SDS011;9458;50.942;5.074;2023-04-24T14:14:46;4.43;;;4.03;;
18657;SDS011;9458;50.942;5.074;2023-04-24T14:17:14;5.00;;;4.05;;
18657;SDS011;9458;50.942;5.074;2023-04-24T14:19:41;5.32;;;4.30;;
18657;SDS011;9458;50.942;5.074;2023-04-24T14:22:09;6.75;;;3.92;;
18657;SDS011;9458;50.942;5.074;2023-04-24T14:24:37;6.45;;;3.83;;
18657;SDS011;9458;50.942;5.074;2023-04-24T14:27:06;6.63;;;3.65;;
18657;SDS011;9458;50.942;5.074;2023-04-24T14:29:34;4.18;;;3.78;;
18657;SDS011;9458;50.942;5.074;2023-04-24T14:32:01;4.00;;;3.60;;
18657;SDS011;9458;50.942;5.074;2023-04-24T14:34:28;4.85;;;3.78;;
18657;SDS011;9458;50.942;5.074;2023-04-24T14:36:56;5.20;;;3.42;;
18657;SDS011;9458;50.942;5.074;2023-04-24T14:39:24;3.78;;;3.38;;
18657;SDS011;9458;50.942;5.074;2023-04-24T14:41:52;4.78;;;3.50;;
18657;SDS011;9458;50.942;5.074;2023-04-24T14:44:21;5.63;;;3.30;;
18657;SDS011;9458;50.942;5.074;2023-04-24T14:46:48;3.92;;;3.25;;
18657;SDS011;9458;50.942;5.074;2023-04-24T14:49:15;4.60;;;3.00;;
18657;SDS011;9458;50.942;5.074;2023-04-24T14:51:43;4.28;;;2.90;;
18657;SDS011;9458;50.942;5.074;2023-04-24T14:54:11;3.92;;;3.10;;
18657;SDS011;9458;50.942;5.074;2023-04-24T14:56:38;3.80;;;3.15;;
18657;SDS011;9458;50.942;5.074;2023-04-24T14:59:06;3.60;;;2.80;;
18657;SDS011;9458;50.942;5.074;2023-04-24T15:01:36;6.03;;;3.72;;
18657;SDS011;9458;50.942;5.074;2023-04-24T15:04:03;4.90;;;3.35;;
18657;SDS011;9458;50.942;5.074;2023-04-24T15:06:30;4.90;;;3.90;;
18657;SDS011;9458;50.942;5.074;2023-04-24T15:08:58;8.02;;;3.85;;
18657;SDS011;9458;50.942;5.074;2023-04-24T15:11:26;5.53;;;3.15;;